Time;durP1;ratioP1;P1;durP2;ratioP2;P2;SDS_P1;SDS_P2;PMS_P1;PMS_P2;Temp;Humidity;BMP_temperature;BMP_pressure;BME280_temperature;BME280_humidity;BME280_pressure;Samples;Min_cycle;Max_cycle;Signal;HPM_P1;HPM_P2
2022/11/08 00:02:26;;;;;;;43.72;22.58;;;;;;;11.37;69.48;100251.69;3157145;28;20048;-79
2022/11/08 00:03:58;;;;;;;47.60;23.15;;;;;;;11.39;69.33;100252.47;3157196;28;20055;-79
2022/11/08 00:14:43;;;;;;;44.92;23.35;;;;;;;11.40;69.22;100250.72;3157088;28;20036;-80
2022/11/08 00:16:14;;;;;;;45.65;23.30;;;;;;;11.43;69.28;100252.34;3157068;28;20040;-80
2022/11/08 00:17:46;;;;;;;42.65;22.73;;;;;;;11.43;69.28;100247.97;3157286;28;20417;-80
2022/11/08 00:19:18;;;;;;;51.85;23.10;;;;;;;11.42;69.28;100251.50;3157087;28;20104;-79
2022/11/08 00:20:50;;;;;;;43.58;22.27;;;;;;;11.39;69.31;100246.41;3157269;28;20090;-79
2022/11/08 00:22:22;;;;;;;45.00;23.10;;;;;;;11.42;69.55;100245.41;3157195;28;20110;-79
2022/11/08 00:23:54;;;;;;;38.38;21.95;;;;;;;11.39;69.79;100246.41;3156992;28;20090;-78
2022/11/08 00:25:26;;;;;;;42.33;21.67;;;;;;;11.38;69.85;100242.09;3150601;28;20078;-79
2022/11/08 00:26:58;;;;;;;44.40;22.73;;;;;;;11.36;69.59;100243.94;3149709;28;20121;-76
2022/11/08 00:28:30;;;;;;;45.28;22.80;;;;;;;11.38;70.01;100248.16;3152342;28;20055;-79
2022/11/08 00:30:04;;;;;;;41.92;22.40;;;;;;;11.37;70.09;100251.69;3157304;28;20078;-76
2022/11/08 00:31:35;;;;;;;41.88;21.40;;;;;;;11.37;69.95;100249.06;3156994;28;20063;-76
2022/11/08 00:33:06;;;;;;;39.10;21.25;;;;;;;11.38;69.75;100244.69;3156171;28;20127;-76
2022/11/08 00:34:38;;;;;;;42.95;22.90;;;;;;;11.42;69.76;100250.63;3156732;28;20490;-76
2022/11/08 00:36:10;;;;;;;43.72;22.85;;;;;;;11.43;70.13;100247.13;3157226;28;20429;-76
2022/11/08 00:37:42;;;;;;;45.95;22.75;;;;;;;11.45;69.70;100251.38;3157103;28;20048;-76
2022/11/08 00:39:14;;;;;;;41.47;22.90;;;;;;;11.47;70.00;100252.13;3160315;28;20089;-76
2022/11/08 00:40:46;;;;;;;45.95;24.15;;;;;;;11.47;69.78;100236.47;3158225;28;20052;-76
2022/11/08 00:42:17;;;;;;;48.42;23.02;;;;;;;11.44;70.20;100234.00;3156948;28;20075;-76
2022/11/08 00:43:49;;;;;;;49.03;23.80;;;;;;;11.46;69.94;100245.22;3156549;28;20044;-76
2022/11/08 00:45:22;;;;;;;51.28;24.17;;;;;;;11.49;70.12;100237.28;3156543;28;20048;-76
2022/11/08 00:46:54;;;;;;;50.00;24.05;;;;;;;11.50;70.05;100235.50;3156885;28;20047;-77
2022/11/08 00:48:26;;;;;;;51.92;24.23;;;;;;;11.50;70.17;100238.13;3156554;28;20101;-76
2022/11/08 00:49:58;;;;;;;45.40;22.95;;;;;;;11.51;70.57;100234.63;3156658;28;20082;-76
2022/11/08 00:51:29;;;;;;;46.30;25.27;;;;;;;11.52;70.44;100233.69;3156699;28;20105;-76
2022/11/08 00:53:01;;;;;;;42.95;24.83;;;;;;;11.54;70.55;100237.94;3157077;28;20867;-76
2022/11/08 00:54:33;;;;;;;47.10;25.90;;;;;;;11.55;70.49;100231.81;3156757;28;20497;-76
2022/11/08 00:56:06;;;;;;;46.92;23.83;;;;;;;11.56;70.33;100230.03;3156245;28;20056;-76
2022/11/08 00:57:38;;;;;;;45.67;24.85;;;;;;;11.58;70.39;100229.06;3156677;28;20063;-76
2022/11/08 00:59:12;;;;;;;50.03;24.77;;;;;;;11.58;70.25;100218.63;3156947;28;20063;-75
2022/11/08 01:00:45;;;;;;;48.10;24.75;;;;;;;11.63;70.50;100212.38;3156532;28;20056;-75
2022/11/08 01:02:17;;;;;;;48.25;24.70;;;;;;;11.66;70.06;100213.09;3157129;28;20101;-75
2022/11/08 01:03:49;;;;;;;50.17;24.70;;;;;;;11.67;70.23;100211.31;3158532;28;20540;-76
2022/11/08 01:05:21;;;;;;;45.83;25.48;;;;;;;11.72;70.54;100218.06;3159477;28;20055;-76
2022/11/08 01:06:53;;;;;;;49.65;26.85;;;;;;;11.73;70.55;100216.28;3159212;28;20094;-75
2022/11/08 01:08:25;;;;;;;44.97;25.13;;;;;;;11.40;70.32;100164.66;3159211;28;20052;-75
2022/11/08 01:09:56;;;;;;;46.53;24.67;;;;;;;11.76;70.13;100218.75;3168548;28;20089;-75
2022/11/08 01:11:28;;;;;;;61.33;26.83;;;;;;;11.75;70.26;100217.91;3163912;28;20433;-75
2022/11/08 01:12:59;;;;;;;47.05;25.10;;;;;;;11.78;70.24;100215.16;3158957;28;20437;-76
2022/11/08 01:14:31;;;;;;;50.92;26.85;;;;;;;11.82;70.09;100213.28;3159007;28;20051;-76
2022/11/08 01:16:09;;;;;;;49.42;25.35;;;;;;;11.54;70.26;100159.69;3158894;28;20541;-76
2022/11/08 01:17:41;;;;;;;45.40;24.77;;;;;;;11.86;70.09;100203.56;3159383;28;20162;-76
2022/11/08 01:19:13;;;;;;;46.25;24.58;;;;;;;11.86;70.21;100204.44;3158838;28;20067;-75
2022/11/08 01:20:45;;;;;;;51.10;26.38;;;;;;;11.66;70.13;100179.19;3159855;28;20048;-77
2022/11/08 01:22:17;;;;;;;52.05;26.98;;;;;;;11.84;70.17;100196.63;3159509;28;20097;-77
2022/11/08 01:23:49;;;;;;;55.75;26.25;;;;;;;11.84;70.33;100194.03;3158974;28;20523;-76
2022/11/08 01:25:20;;;;;;;47.67;26.45;;;;;;;11.84;70.76;100196.63;3159011;28;20101;-76
2022/11/08 01:26:52;;;;;;;45.85;26.20;;;;;;;11.74;70.65;100174.47;3158952;28;20555;-78
2022/11/08 01:28:22;;;;;;;56.35;25.52;;;;;;;11.85;70.79;100187.06;3158994;28;21504;-78
2022/11/08 01:29:54;;;;;;;50.05;25.60;;;;;;;11.87;70.43;100198.31;3158952;28;20044;-78
2022/11/08 01:31:29;;;;;;;49.65;26.02;;;;;;;11.87;70.47;100185.25;3159230;28;20535;-79
2022/11/08 01:33:00;;;;;;;53.40;27.17;;;;;;;11.93;70.77;100181.53;3159255;28;20115;-77
2022/11/08 01:34:32;;;;;;;53.13;26.77;;;;;;;11.93;70.41;100171.94;3159052;28;20108;-76
2022/11/08 01:36:06;;;;;;;47.90;25.75;;;;;;;11.99;70.36;100183.84;3159016;28;20519;-76
2022/11/08 01:37:38;;;;;;;50.40;25.73;;;;;;;12.00;70.61;100175.94;3159017;28;20051;-76
2022/11/08 01:39:10;;;;;;;54.25;26.67;;;;;;;12.01;70.34;100179.44;3160997;28;20070;-76
2022/11/08 01:40:43;;;;;;;48.08;25.08;;;;;;;12.05;70.57;100180.97;3161207;28;20062;-76
2022/11/08 01:42:14;;;;;;;45.83;26.40;;;;;;;12.03;70.23;100167.97;3158994;28;20196;-78
2022/11/08 01:43:51;;;;;;;44.75;25.77;;;;;;;12.10;70.00;100172.91;3158715;28;20044;-77
2022/11/08 01:46:15;;;;;;;50.30;27.65;;;;;;;12.09;70.30;100176.44;3160589;28;20051;-78
2022/11/08 01:47:49;;;;;;;47.03;24.77;;;;;;;12.07;70.40;100169.53;3117992;28;20053;-77
2022/11/08 01:49:38;;;;;;;50.08;27.33;;;;;;;12.11;70.03;100172.84;3125183;28;20467;-76
2022/11/08 01:51:13;;;;;;;45.25;24.50;;;;;;;12.11;70.17;100169.41;3148001;28;20136;-78
2022/11/08 01:52:48;;;;;;;47.85;24.40;;;;;;;12.11;70.11;100161.56;3158660;28;20044;-77
2022/11/08 01:54:24;;;;;;;50.72;25.65;;;;;;;12.14;70.15;100171.88;3158521;28;20143;-76
2022/11/08 01:55:56;;;;;;;49.85;25.17;;;;;;;12.12;70.15;100165.88;3158604;28;20044;-76
2022/11/08 01:57:32;;;;;;;50.08;26.40;;;;;;;12.12;70.26;100164.09;3158995;28;20097;-77
2022/11/08 01:59:07;;;;;;;51.90;27.55;;;;;;;12.14;69.80;100164.88;3158725;28;20040;-76
2022/11/08 02:00:39;;;;;;;48.60;25.73;;;;;;;12.13;69.88;100170.19;3158454;28;20135;-76
2022/11/08 02:02:11;;;;;;;58.15;26.60;;;;;;;12.14;70.17;100167.50;3158371;28;20048;-76
2022/11/08 02:03:45;;;;;;;52.10;26.70;;;;;;;12.18;70.24;100176.03;3158794;28;20040;-76
2022/11/08 02:05:25;;;;;;;47.33;26.30;;;;;;;12.17;70.06;100174.34;3158516;28;20048;-76
2022/11/08 02:06:57;;;;;;;50.20;25.85;;;;;;;12.12;70.21;100164.09;3158373;28;20116;-76
2022/11/08 02:08:33;;;;;;;44.42;25.10;;;;;;;12.19;70.08;100175.13;3158781;28;20055;-76
2022/11/08 02:10:06;;;;;;;47.97;26.08;;;;;;;12.20;69.93;100176.81;3159034;28;20602;-76
2022/11/08 02:11:39;;;;;;;50.67;26.27;;;;;;;12.22;70.26;100180.22;3151586;28;20127;-77
2022/11/08 02:13:15;;;;;;;47.10;25.73;;;;;;;12.23;69.80;100174.91;3154220;28;20469;-77
2022/11/08 02:14:47;;;;;;;44.50;25.33;;;;;;;12.20;69.93;100175.03;3157839;28;20048;-77
2022/11/08 02:16:19;;;;;;;48.72;26.83;;;;;;;12.24;69.66;100186.19;3158609;28;20105;-77
2022/11/08 02:17:51;;;;;;;45.67;26.10;;;;;;;12.25;69.82;100178.31;3156546;28;20135;-77
2022/11/08 02:19:36;;;;;;;51.70;26.95;;;;;;;12.24;70.10;100179.19;3161675;28;20523;-77
2022/11/08 02:21:13;;;;;;;50.00;27.35;;;;;;;12.23;69.96;100181.91;3168256;28;20043;-77
2022/11/08 02:22:50;;;;;;;49.85;25.70;;;;;;;12.27;69.95;100191.28;3158271;28;20632;-76
2022/11/08 02:24:24;;;;;;;52.78;27.23;;;;;;;12.22;69.71;100183.66;3155207;28;20440;-76
2022/11/08 02:25:56;;;;;;;;;;;;;;;12.12;69.94;100184.13;3158872;28;20503;-76
2022/11/08 02:27:28;;;;;;;52.28;27.45;;;;;;;12.08;70.46;100186.06;3158198;28;19920;-76
2022/11/08 02:29:20;;;;;;;50.85;26.00;;;;;;;12.07;70.21;100172.16;3158158;28;20491;-76
2022/11/08 02:30:53;;;;;;;50.63;26.55;;;;;;;12.08;70.36;100183.44;3154029;28;20180;-77
2022/11/08 02:32:25;;;;;;;51.85;26.90;;;;;;;12.00;70.31;100173.34;3160140;28;20099;-77
2022/11/08 02:33:57;;;;;;;48.25;25.95;;;;;;;12.13;70.47;100185.84;3161756;28;20461;-77
2022/11/08 02:35:29;;;;;;;55.85;27.48;;;;;;;12.13;70.16;100189.31;3158476;28;20135;-77
2022/11/08 02:37:03;;;;;;;51.47;27.42;;;;;;;12.11;70.46;100187.69;3158957;28;20125;-76
2022/11/08 02:38:40;;;;;;;50.03;26.90;;;;;;;12.12;70.34;100191.97;3159430;28;20056;-78
2022/11/08 02:40:14;;;;;;;48.75;27.95;;;;;;;12.10;70.40;100196.41;3165428;28;20074;-78
2022/11/08 02:41:45;;;;;;;;;;;;;;;11.99;70.50;100192.53;3161259;28;20483;-76
2022/11/08 02:43:17;;;;;;;55.03;26.90;;;;;;;11.97;70.79;100196.13;3146155;28;19924;-76
2022/11/08 02:44:49;;;;;;;53.22;27.45;;;;;;;11.99;70.39;100200.34;3157054;28;20862;-77
2022/11/08 02:46:21;;;;;;;54.47;28.55;;;;;;;11.92;70.58;100185.91;3163210;28;20056;-76
2022/11/08 02:47:53;;;;;;;55.00;29.13;;;;;;;11.99;70.92;100196.91;3165187;28;20048;-77
2022/11/08 02:49:25;;;;;;;50.85;27.65;;;;;;;11.99;70.83;100199.50;3158309;28;20098;-76
2022/11/08 02:50:57;;;;;;;53.25;28.08;;;;;;;11.96;70.68;100184.00;3162258;28;20052;-75
2022/11/08 02:52:28;;;;;;;54.58;27.00;;;;;;;11.99;70.59;100192.53;3163132;28;20044;-76
2022/11/08 02:53:59;;;;;;;57.75;28.95;;;;;;;12.01;70.79;100187.25;3161799;28;20858;-76
2022/11/08 02:55:34;;;;;;;49.08;27.25;;;;;;;12.03;70.80;100185.41;3149517;28;20062;-73
2022/11/08 02:57:06;;;;;;;50.67;27.90;;;;;;;12.04;70.75;100187.97;3148405;28;20113;-76
2022/11/08 02:58:38;;;;;;;52.17;28.50;;;;;;;12.06;70.84;100193.94;3148245;28;20055;-76
2022/11/08 03:00:11;;;;;;;50.20;27.85;;;;;;;12.08;70.49;100183.44;3147998;28;20063;-74
2022/11/08 03:01:43;;;;;;;55.38;28.40;;;;;;;11.99;70.44;100184.69;3147641;28;20048;-76
2022/11/08 03:03:16;;;;;;;51.53;27.20;;;;;;;12.02;70.61;100187.16;3148989;28;20213;-76
2022/11/08 03:04:48;;;;;;;55.28;28.73;;;;;;;11.98;70.71;100188.25;3148974;28;20162;-75
2022/11/08 03:06:20;;;;;;;54.33;27.83;;;;;;;11.97;71.08;100191.75;3149663;28;20109;-77
2022/11/08 03:07:53;;;;;;;61.40;28.67;;;;;;;11.95;70.85;100198.81;3150875;28;20194;-79
2022/11/08 03:09:26;;;;;;;52.88;27.48;;;;;;;11.97;70.90;100190.91;3160581;28;20052;-78
2022/11/08 03:11:00;;;;;;;55.88;28.83;;;;;;;11.98;70.93;100193.47;3163938;28;20059;-79
2022/11/08 03:12:32;;;;;;;51.15;28.30;;;;;;;11.98;71.03;100192.59;3158042;28;20066;-79
2022/11/08 03:14:04;;;;;;;55.17;29.13;;;;;;;11.96;71.22;100192.66;3167729;27;20051;-79
2022/11/08 03:15:36;;;;;;;53.08;29.80;;;;;;;11.96;71.31;100192.66;3157616;28;20340;-78
2022/11/08 03:17:08;;;;;;;55.58;28.52;;;;;;;11.96;71.22;100191.81;3155895;28;20056;-78
2022/11/08 03:18:39;;;;;;;60.15;28.30;;;;;;;11.94;71.07;100185.81;3149459;28;20106;-79
2022/11/08 03:20:12;;;;;;;54.92;30.10;;;;;;;11.98;71.03;100192.59;3149018;28;20048;-79
2022/11/08 03:21:44;;;;;;;52.47;28.60;;;;;;;11.96;71.14;100184.00;3149328;28;20094;-79
2022/11/08 03:23:15;;;;;;;56.35;29.17;;;;;;;11.99;71.42;100189.91;3147548;28;20310;-77
2022/11/08 03:24:47;;;;;;;55.03;29.23;;;;;;;12.01;71.33;100190.72;3148440;28;20500;-76
2022/11/08 03:26:21;;;;;;;52.97;26.35;;;;;;;12.04;71.01;100201.00;3148468;28;20079;-77
2022/11/08 03:27:53;;;;;;;50.53;28.35;;;;;;;12.03;71.32;100195.84;3147799;28;20449;-80
2022/11/08 03:29:25;;;;;;;52.95;28.70;;;;;;;12.01;71.51;100193.31;3148856;28;20390;-77
2022/11/08 03:30:57;;;;;;;51.15;29.38;;;;;;;12.01;71.06;100190.72;3148258;28;20056;-79
2022/11/08 03:32:30;;;;;;;51.80;28.77;;;;;;;11.94;71.36;100178.00;3148758;28;20060;-79
2022/11/08 03:34:02;;;;;;;50.83;28.73;;;;;;;12.05;71.13;100196.63;3148146;28;20058;-77
2022/11/08 03:35:34;;;;;;;56.75;28.80;;;;;;;12.02;71.11;100194.16;3148890;28;20548;-76
2022/11/08 03:37:07;;;;;;;53.72;28.63;;;;;;;12.04;71.12;100197.56;3147745;28;20688;-76
2022/11/08 03:38:39;;;;;;;55.85;28.60;;;;;;;12.08;71.37;100201.72;3147473;28;20113;-75
2022/11/08 03:40:12;;;;;;;56.47;28.95;;;;;;;12.10;71.12;100196.41;3153156;28;20051;-75
2022/11/08 03:41:45;;;;;;;58.42;27.42;;;;;;;12.12;71.18;100195.44;3148661;28;20079;-75
2022/11/08 03:43:17;;;;;;;54.72;29.90;;;;;;;12.07;71.32;100187.81;3147352;28;20071;-75
2022/11/08 03:44:49;;;;;;;51.60;28.20;;;;;;;12.12;71.03;100190.19;3146999;28;20044;-75
2022/11/08 03:46:21;;;;;;;59.33;28.30;;;;;;;12.11;71.34;100187.69;3147476;28;20052;-78
2022/11/08 03:47:52;;;;;;;53.30;28.30;;;;;;;12.14;71.04;100190.16;3149108;28;20069;-75
2022/11/08 03:49:24;;;;;;;52.90;29.23;;;;;;;12.17;71.26;100192.63;3148454;28;20059;-74
2022/11/08 03:50:56;;;;;;;58.35;28.60;;;;;;;12.19;70.95;100185.56;3147285;28;20856;-74
2022/11/08 03:52:28;;;;;;;56.65;28.35;;;;;;;12.20;70.87;100184.66;3148230;28;20135;-77
2022/11/08 03:54:00;;;;;;;58.22;27.85;;;;;;;12.13;71.11;100170.19;3148653;28;20048;-76
2022/11/08 03:55:32;;;;;;;49.97;28.45;;;;;;;12.20;71.08;100185.50;3143701;28;20056;-75
2022/11/08 03:57:05;;;;;;;61.25;29.67;;;;;;;12.20;70.78;100182.03;3143254;28;20055;-75
2022/11/08 03:58:37;;;;;;;;;;;;;;;12.10;71.00;100183.34;3146061;28;20055;-75
2022/11/08 04:00:11;;;;;;;60.42;26.88;;;;;;;11.87;71.04;100140.88;3148065;28;19942;-75
2022/11/08 04:01:44;;;;;;;58.60;29.20;;;;;;;12.07;70.95;100174.75;3147850;28;20054;-75
2022/11/08 04:03:16;;;;;;;61.15;29.30;;;;;;;12.06;71.43;100182.66;3147675;28;20351;-76
2022/11/08 04:04:48;;;;;;;57.50;28.98;;;;;;;12.06;71.28;100180.03;3147323;28;20044;-74
2022/11/08 04:06:20;;;;;;;54.20;29.27;;;;;;;12.06;71.40;100180.03;3147166;28;20534;-75
2022/11/08 04:07:52;;;;;;;57.10;28.98;;;;;;;12.07;71.18;100179.16;3146818;28;20120;-74
2022/11/08 04:09:24;;;;;;;54.83;27.88;;;;;;;12.04;71.51;100177.50;3152028;28;20079;-75
2022/11/08 04:10:56;;;;;;;57.38;29.15;;;;;;;12.01;71.31;100172.44;3156481;28;20044;-75
2022/11/08 04:16:08;;;;;;;60.95;28.92;;;;;;;12.03;71.53;100177.56;3138750;28;20040;-74
2022/11/08 04:21:21;;;;;;;60.95;28.70;;;;;;;12.04;71.37;100182.75;3144255;28;20052;-75
2022/11/08 04:22:52;;;;;;;52.35;27.75;;;;;;;12.01;71.50;100176.81;3146304;28;20048;-78
2022/11/08 04:24:24;;;;;;;54.00;28.27;;;;;;;12.07;71.41;100180.00;3147706;28;20538;-81
2022/11/08 04:25:56;;;;;;;53.13;27.63;;;;;;;12.02;71.46;100168.91;3151217;28;20051;-78
2022/11/08 04:27:30;;;;;;;57.97;28.83;;;;;;;12.07;71.02;100182.59;3148736;28;20058;-77
2022/11/08 04:29:02;;;;;;;;;;;;;;;11.98;71.23;100185.63;3147750;28;20310;-76
2022/11/08 04:30:33;;;;;;;52.47;28.67;;;;;;;11.95;71.37;100183.16;3148423;28;19935;-78
2022/11/08 04:32:06;;;;;;;55.65;28.48;;;;;;;11.96;71.42;100190.06;3157156;28;20536;-77
2022/11/08 04:33:37;;;;;;;58.33;29.48;;;;;;;11.90;71.25;100179.06;3152005;28;20056;-77
2022/11/08 04:35:09;;;;;;;67.93;30.15;;;;;;;11.99;71.36;100183.84;3146836;28;20860;-77
2022/11/08 04:36:41;;;;;;;53.67;29.25;;;;;;;12.01;71.39;100193.31;3146709;28;20101;-77
2022/11/08 04:38:12;;;;;;;56.03;28.88;;;;;;;12.02;71.42;100197.59;3146841;28;20078;-77
2022/11/08 04:39:44;;;;;;;56.20;28.58;;;;;;;12.02;71.59;100200.22;3151912;28;20203;-77
2022/11/08 04:41:16;;;;;;;56.92;29.35;;;;;;;12.01;71.35;100195.94;3146740;28;20116;-77
2022/11/08 04:42:49;;;;;;;58.95;29.10;;;;;;;12.01;71.41;100203.75;3146844;28;20072;-77
2022/11/08 04:44:21;;;;;;;;;;;;;;;11.94;71.45;100206.69;3134906;28;20580;-76
2022/11/08 04:45:58;;;;;;;47.88;27.10;;;;;;;11.96;71.48;100210.94;3146508;28;19923;-77
2022/11/08 04:47:30;;;;;;;59.38;29.85;;;;;;;11.98;71.62;100206.50;3148423;28;20055;-76
2022/11/08 04:49:02;;;;;;;54.90;30.08;;;;;;;12.00;71.54;100206.41;3147736;28;20316;-77
2022/11/08 04:51:05;;;;;;;68.70;30.33;;;;;;;12.00;71.45;100206.41;3148489;28;20074;-77
2022/11/08 04:52:37;;;;;;;63.83;31.13;;;;;;;11.99;71.44;100204.75;3156660;28;20109;-75
2022/11/08 04:54:10;;;;;;;61.03;29.40;;;;;;;11.96;71.50;100200.50;3156678;28;20048;-76
2022/11/08 04:55:42;;;;;;;59.75;30.20;;;;;;;11.95;71.33;100211.00;3156810;28;20134;-77
2022/11/08 04:57:15;;;;;;;54.13;29.02;;;;;;;11.92;71.47;100209.38;3156236;28;20047;-76
2022/11/08 04:58:49;;;;;;;53.17;29.77;;;;;;;11.96;71.63;100220.53;3151848;28;20059;-77
2022/11/08 05:00:21;;;;;;;65.72;30.52;;;;;;;11.94;71.34;100219.75;3156353;28;20060;-77
2022/11/08 05:01:53;;;;;;;56.55;29.65;;;;;;;11.95;71.33;100221.44;3156569;28;20048;-77
2022/11/08 05:03:25;;;;;;;62.13;29.48;;;;;;;11.94;71.26;100217.13;3156924;28;20509;-78
2022/11/08 05:04:57;;;;;;;56.17;30.30;;;;;;;11.98;71.50;100232.59;3154606;28;20056;-77
2022/11/08 05:06:30;;;;;;;61.65;29.40;;;;;;;11.96;71.50;100223.16;3156587;28;20083;-76
2022/11/08 05:08:02;;;;;;;64.45;30.15;;;;;;;11.96;71.35;100221.38;3156879;28;20052;-76
2022/11/08 05:09:34;;;;;;;65.03;30.33;;;;;;;11.97;71.42;100225.66;3162755;28;20440;-76
2022/11/08 05:11:08;;;;;;;59.83;30.25;;;;;;;11.99;71.70;100236.91;3164652;28;20102;-76
2022/11/08 05:12:39;;;;;;;60.72;29.45;;;;;;;11.99;71.50;100234.28;3156972;28;20093;-78
2022/11/08 05:14:13;;;;;;;57.03;28.40;;;;;;;11.98;71.21;100235.22;3157974;28;20052;-77
2022/11/08 05:15:44;;;;;;;60.15;30.10;;;;;;;12.01;71.27;100235.09;3158295;28;20501;-80
2022/11/08 05:17:16;;;;;;;64.88;30.90;;;;;;;11.99;71.38;100234.28;3175614;28;20122;-79
2022/11/08 05:18:48;;;;;;;60.05;30.67;;;;;;;11.88;71.33;100223.47;3161325;28;20052;-76
2022/11/08 05:23:59;;;;;;;59.78;30.52;;;;;;;11.94;71.64;100233.63;3156744;28;20426;-77
2022/11/08 05:25:30;;;;;;;65.97;31.40;;;;;;;11.95;71.53;100235.34;3156849;28;20453;-78
2022/11/08 05:27:02;;;;;;;54.65;30.25;;;;;;;11.97;71.68;100236.09;3156519;28;20056;-78
2022/11/08 05:28:34;;;;;;;58.80;29.15;;;;;;;11.95;71.70;100240.56;3156493;28;20526;-76
2022/11/08 05:30:09;;;;;;;56.05;29.95;;;;;;;11.93;71.90;100236.34;3156769;28;20048;-77
2022/11/08 05:31:40;;;;;;;66.13;31.00;;;;;;;11.92;71.92;100234.63;3156665;28;20125;-77
2022/11/08 05:33:14;;;;;;;56.58;29.83;;;;;;;11.93;72.23;100234.56;3156376;28;20048;-77
2022/11/08 05:34:46;;;;;;;58.67;30.17;;;;;;;11.73;72.26;100206.69;3156775;28;20052;-77
2022/11/08 05:36:18;;;;;;;59.17;30.40;;;;;;;11.94;72.35;100233.63;3156801;28;20517;-76
2022/11/08 05:37:50;;;;;;;55.42;30.20;;;;;;;11.90;72.06;100226.03;3156463;28;20191;-76
2022/11/08 05:39:22;;;;;;;64.10;30.13;;;;;;;11.98;72.06;100235.22;3160665;28;20150;-77
2022/11/08 05:40:54;;;;;;;60.22;30.58;;;;;;;11.93;72.22;100224.13;3154411;28;20151;-75
2022/11/08 05:42:24;;;;;;;57.30;29.20;;;;;;;12.02;71.99;100230.69;3144350;28;20052;-76
2022/11/08 05:43:56;;;;;;;62.63;30.40;;;;;;;12.02;71.93;100228.94;3153369;28;20901;-77
2022/11/08 05:45:30;;;;;;;55.33;30.33;;;;;;;12.09;72.02;100236.50;3156660;28;20052;-76
2022/11/08 05:47:02;;;;;;;68.13;30.70;;;;;;;12.09;72.03;100244.31;3156567;28;20231;-76
2022/11/08 05:48:34;;;;;;;58.55;30.05;;;;;;;12.04;71.58;100240.16;3156628;28;20082;-78
2022/11/08 05:50:06;;;;;;;63.78;31.52;;;;;;;12.09;71.87;100246.94;3158113;28;20044;-75
2022/11/08 05:51:38;;;;;;;55.30;30.38;;;;;;;12.13;71.57;100240.69;3158834;28;20056;-78
2022/11/08 05:53:10;;;;;;;61.28;31.58;;;;;;;12.13;71.95;100240.69;3158604;28;20109;-76
2022/11/08 05:54:42;;;;;;;93.63;35.78;;;;;;;12.16;71.98;100246.59;3158801;28;20082;-76
2022/11/08 05:56:15;;;;;;;70.53;31.65;;;;;;;12.11;71.95;100229.44;3157986;28;20048;-77
2022/11/08 05:57:46;;;;;;;63.30;31.00;;;;;;;12.20;71.76;100249.91;3158504;28;20109;-77
2022/11/08 05:59:17;;;;;;;62.25;32.65;;;;;;;12.22;71.71;100245.50;3158856;28;20109;-77
2022/11/08 06:00:50;;;;;;;56.25;31.83;;;;;;;12.24;71.79;100238.41;3158158;28;20466;-77
2022/11/08 06:02:22;;;;;;;62.97;29.45;;;;;;;12.17;71.79;100243.06;3166653;28;20051;-76
2022/11/08 06:03:54;;;;;;;60.22;29.65;;;;;;;12.25;71.77;100253.19;3167515;28;20158;-75
2022/11/08 06:05:26;;;;;;;55.95;30.27;;;;;;;12.28;71.52;100253.88;3158543;28;20056;-76
2022/11/08 06:06:58;;;;;;;67.03;29.67;;;;;;;12.29;71.97;100257.34;3159339;28;20052;-76
2022/11/08 06:08:28;;;;;;;54.28;28.55;;;;;;;12.30;71.64;100259.03;3158697;28;20056;-76
2022/11/08 06:10:00;;;;;;;56.88;29.17;;;;;;;12.32;71.38;100257.19;3170617;28;20575;-76
2022/11/08 06:11:32;;;;;;;57.80;27.83;;;;;;;12.31;71.43;100257.28;3163066;28;20143;-76
2022/11/08 06:13:04;;;;;;;70.18;31.08;;;;;;;12.35;71.75;100259.69;3158487;28;20048;-77
2022/11/08 06:14:36;;;;;;;64.32;29.35;;;;;;;12.37;71.41;100251.78;3158416;28;20120;-76
2022/11/08 06:16:11;;;;;;;59.33;30.63;;;;;;;12.40;71.14;100256.88;3158696;28;20048;-77
2022/11/08 06:17:42;;;;;;;69.72;31.02;;;;;;;12.38;71.25;100253.47;3160736;28;20135;-78
2022/11/08 06:19:14;;;;;;;70.28;33.55;;;;;;;12.40;71.44;100259.47;3159082;28;20509;-76
2022/11/08 06:20:47;;;;;;;80.85;41.15;;;;;;;12.40;71.20;100256.88;3165761;28;20051;-78
2022/11/08 06:22:18;;;;;;;85.13;39.90;;;;;;;12.38;71.01;100259.53;3171870;28;20055;-77
2022/11/08 06:23:52;;;;;;;79.97;38.55;;;;;;;12.41;71.48;100258.56;3169084;28;20474;-78
2022/11/08 06:25:24;;;;;;;88.18;39.00;;;;;;;12.11;71.13;100213.78;3170238;28;20047;-78
2022/11/08 06:26:56;;;;;;;78.50;34.67;;;;;;;12.40;71.27;100264.69;3170521;28;20047;-76
2022/11/08 06:28:28;;;;;;;82.45;33.30;;;;;;;12.36;71.05;100268.34;3164117;28;20056;-77
2022/11/08 06:30:00;;;;;;;83.50;31.95;;;;;;;12.37;71.30;100270.06;3169662;28;20145;-81
2022/11/08 06:31:34;;;;;;;72.57;31.80;;;;;;;12.38;71.05;100269.97;3170773;28;20063;-77
2022/11/08 06:33:06;;;;;;;73.70;32.15;;;;;;;12.39;71.30;100263.00;3162134;28;20112;-77
2022/11/08 06:34:38;;;;;;;68.82;33.38;;;;;;;12.39;71.05;100276.88;3163598;28;20054;-79
2022/11/08 06:36:10;;;;;;;72.75;32.88;;;;;;;12.35;70.45;100267.50;3166841;27;20090;-78
2022/11/08 06:37:43;;;;;;;65.75;31.75;;;;;;;12.35;70.76;100271.88;3169800;28;20108;-78
2022/11/08 06:39:15;;;;;;;78.78;31.95;;;;;;;12.35;70.39;100275.34;3162873;28;20050;-75
2022/11/08 06:40:47;;;;;;;65.43;30.83;;;;;;;12.10;70.33;100243.41;3170787;28;20075;-76
2022/11/08 06:42:18;;;;;;;65.53;30.67;;;;;;;12.28;70.52;100289.59;3159051;28;20051;-75
2022/11/08 06:43:50;;;;;;;70.07;31.02;;;;;;;12.22;70.04;100279.44;3158278;28;20044;-76
2022/11/08 06:45:22;;;;;;;75.05;31.35;;;;;;;12.14;70.21;100277.16;3158381;28;20460;-76
2022/11/08 06:46:55;;;;;;;65.85;32.63;;;;;;;12.11;70.77;100279.06;3158230;28;20044;-77
2022/11/08 06:48:27;;;;;;;73.80;31.20;;;;;;;12.06;70.82;100276.63;3158080;28;20441;-80
2022/11/08 06:49:59;;;;;;;62.08;31.17;;;;;;;12.02;70.81;100277.69;3158361;28;20101;-74
2022/11/08 06:51:31;;;;;;;60.80;31.35;;;;;;;11.98;71.06;100273.50;3158956;28;20127;-73
2022/11/08 06:53:05;;;;;;;68.15;32.22;;;;;;;11.95;71.12;100277.13;3158009;28;20048;-78
2022/11/08 06:54:36;;;;;;;67.28;31.48;;;;;;;11.94;71.20;100274.56;3158012;28;20048;-80
2022/11/08 06:56:09;;;;;;;73.57;32.42;;;;;;;11.94;71.75;100272.78;3157227;28;20048;-78
2022/11/08 06:57:41;;;;;;;64.05;32.97;;;;;;;12.00;71.74;100276.91;3157883;28;20479;-80
2022/11/08 06:59:13;;;;;;;77.65;36.22;;;;;;;12.07;71.76;100278.34;3159069;28;20189;-75
2022/11/08 07:00:45;;;;;;;84.38;34.28;;;;;;;12.14;71.72;100286.75;3158759;28;20052;-74
2022/11/08 07:02:18;;;;;;;75.20;34.47;;;;;;;12.21;71.51;100283.78;3158833;28;20489;-77
2022/11/08 07:03:50;;;;;;;68.93;34.13;;;;;;;12.27;71.07;100285.28;3158035;28;20105;-74
2022/11/08 07:05:22;;;;;;;76.20;34.78;;;;;;;12.36;71.30;100282.25;3157601;28;20561;-76
2022/11/08 07:06:55;;;;;;;78.40;34.53;;;;;;;12.44;71.02;100285.38;3157745;28;20509;-75
2022/11/08 07:08:27;;;;;;;76.95;33.45;;;;;;;12.50;70.98;100276.41;3157827;28;20094;-74
2022/11/08 07:10:06;;;;;;;60.05;32.67;;;;;;;12.57;70.17;100274.38;3166866;28;20043;-73
2022/11/08 07:11:39;;;;;;;68.13;32.53;;;;;;;12.62;70.13;100275.00;3169471;28;20048;-69
2022/11/08 07:13:12;;;;;;;60.70;33.13;;;;;;;12.71;70.11;100275.41;3169776;28;20062;-70
2022/11/08 07:14:44;;;;;;;74.60;34.38;;;;;;;12.77;70.06;100261.22;3169640;28;20051;-72
2022/11/08 07:16:16;;;;;;;661.63;396.95;;;;;;;12.97;69.85;100268.97;3170016;28;20040;-70
2022/11/08 07:17:49;;;;;;;85.80;46.03;;;;;;;13.16;69.53;100266.34;3169580;28;20500;-69
2022/11/08 07:19:21;;;;;;;;;;;;;;;13.38;69.36;100265.31;3165940;28;20044;-68
2022/11/08 07:20:53;;;;;;;73.35;30.92;;;;;;;13.60;69.19;100263.31;3163698;28;20002;-72
2022/11/08 07:22:26;;;;;;;55.40;28.63;;;;;;;13.96;68.10;100269.38;3169873;27;20486;-73
2022/11/08 07:23:57;;;;;;;61.00;28.58;;;;;;;14.27;67.48;100279.94;3169953;28;20047;-74
2022/11/08 07:25:30;;;;;;;61.50;27.80;;;;;;;14.54;66.52;100268.94;3169645;27;20089;-74